ENNO

Notodden Airport

Norway
METAR ENNO 211450Z 27012KT CAVOK 15/M01 Q1016
Observed Flight Rules
Apr-21 @ 14:50 UTC (16 hours ago) Visual Flight Rules
Wind Visibility Clouds
270° at 12 knots 10,000+ meters
  • Clear skies
Temperatures Readings
Current 15°C / 59°F
Dewpoint -1°C / 30°F
Humidity 34%
Altimeter 30" Hg
Pressure 1016 hPa
Elevation 19
METAR ENNO 211450Z 27012KT CAVOK 15/M01 Q1016
Observed Flight Rules
Apr-21 @ 14:50 UTC
(16 hours ago)
VFR
Wind Visibility
270° at 12 knots 10,000+ meters
Clouds
  • Clear skies
Temperature Dewpoint
15°C / 59°F -1°C / 30°F
Humidity Altimeter Pressure
34% 30" Hg 1016 hPa